Time;durP1;ratioP1;P1;durP2;ratioP2;P2;SDS_P1;SDS_P2;PMS_P1;PMS_P2;Temp;Humidity;BMP_temperature;BMP_pressure;BME280_temperature;BME280_humidity;BME280_pressure;Samples;Min_cycle;Max_cycle;Signal;HPM_P1;HPM_P2
2021/10/18 00:01:29;;;;;;;22.42;19.88;;;;;;;9.48;100.00;101216.00;4995272;28;20094;-66
2021/10/18 00:03:54;;;;;;;20.48;16.20;;;;;;;9.41;100.00;101190.72;5051352;28;20031;-66
2021/10/18 00:06:20;;;;;;;22.00;15.75;;;;;;;9.59;100.00;101215.69;5036438;28;20037;-69
2021/10/18 00:08:45;;;;;;;21.08;17.88;;;;;;;9.69;100.00;101205.94;5050429;28;20079;-65
2021/10/18 00:11:11;;;;;;;23.83;20.88;;;;;;;9.80;100.00;101203.91;5033854;28;20025;-67
2021/10/18 00:13:37;;;;;;;24.00;21.50;;;;;;;9.33;100.00;101131.03;5031821;28;20527;-67
2021/10/18 00:16:03;;;;;;;22.83;19.02;;;;;;;9.85;100.00;101204.16;5032431;28;20027;-66
2021/10/18 00:18:28;;;;;;;22.80;20.42;;;;;;;9.82;100.00;101181.69;5031917;28;20025;-66
2021/10/18 00:20:54;;;;;;;22.98;18.27;;;;;;;10.01;100.00;101201.56;5032295;28;20099;-65
2021/10/18 00:23:20;;;;;;;20.85;17.05;;;;;;;10.09;100.00;101198.47;5031749;28;20079;-65
2021/10/18 00:25:46;;;;;;;20.55;16.33;;;;;;;10.12;100.00;101198.63;5031664;28;20034;-64
2021/10/18 00:28:12;;;;;;;19.40;17.30;;;;;;;10.16;99.88;101193.69;5031143;28;20051;-65
2021/10/18 00:30:37;;;;;;;19.80;15.80;;;;;;;10.18;98.73;101198.94;5031720;28;20044;-64
2021/10/18 00:33:03;;;;;;;19.13;15.75;;;;;;;10.27;99.38;101185.59;5031615;28;20029;-65
2021/10/18 00:35:28;;;;;;;18.63;16.27;;;;;;;10.31;98.31;101184.97;5031570;28;20462;-67
2021/10/18 00:37:54;;;;;;;18.45;16.48;;;;;;;10.30;97.53;101185.75;5032216;28;20029;-65
2021/10/18 00:40:19;;;;;;;18.40;16.40;;;;;;;10.19;98.28;101168.06;5031585;28;20033;-66
2021/10/18 00:42:45;;;;;;;19.83;14.45;;;;;;;9.42;98.52;101027.56;5031417;28;20083;-64
2021/10/18 00:45:11;;;;;;;19.63;15.13;;;;;;;9.92;98.51;101113.41;5031976;28;20025;-66
2021/10/18 00:47:37;;;;;;;18.88;15.38;;;;;;;10.32;98.51;101186.75;5031407;28;20472;-67
2021/10/18 00:50:05;;;;;;;20.05;15.15;;;;;;;10.28;98.25;101169.31;5031615;28;20079;-66
2021/10/18 00:52:33;;;;;;;18.77;13.77;;;;;;;10.33;98.22;101176.47;5014198;28;20029;-66
2021/10/18 00:54:59;;;;;;;20.90;14.50;;;;;;;10.32;98.24;101181.56;5031999;28;20167;-66
2021/10/18 00:57:25;;;;;;;18.42;13.88;;;;;;;10.27;98.88;101180.44;5031515;28;20491;-67
2021/10/18 00:59:51;;;;;;;21.05;15.27;;;;;;;9.86;98.60;101107.94;5031962;28;20036;-67
2021/10/18 01:02:17;;;;;;;22.17;14.68;;;;;;;10.24;98.40;101194.06;5031894;28;20029;-66
2021/10/18 01:04:44;;;;;;;18.33;13.15;;;;;;;10.28;98.28;101185.69;5031551;28;20045;-67
2021/10/18 01:07:09;;;;;;;15.98;13.15;;;;;;;10.19;98.23;101172.31;5031505;28;20103;-66
2021/10/18 01:09:35;;;;;;;17.33;13.18;;;;;;;10.14;98.39;101195.34;5031500;28;20484;-67
2021/10/18 01:12:04;;;;;;;18.92;13.25;;;;;;;9.92;99.36;101200.19;5031115;28;20083;-66
2021/10/18 01:14:29;;;;;;;21.07;12.73;;;;;;;9.91;99.85;101196.72;5031582;28;20478;-67
2021/10/18 01:16:55;;;;;;;16.63;13.07;;;;;;;9.52;99.09;101122.56;5031529;28;20029;-66
2021/10/18 01:19:23;;;;;;;17.77;13.38;;;;;;;9.96;98.71;101203.00;5031830;28;20025;-66
2021/10/18 01:21:50;;;;;;;15.90;12.90;;;;;;;9.76;99.02;101209.72;5031333;28;20029;-66
2021/10/18 01:24:16;;;;;;;17.08;12.90;;;;;;;9.75;98.90;101201.91;5031343;28;20033;-66
2021/10/18 01:26:42;;;;;;;14.93;11.90;;;;;;;9.78;97.45;101215.84;5031474;28;20522;-66
2021/10/18 01:29:07;;;;;;;16.95;12.63;;;;;;;9.70;98.23;101205.13;5013902;28;20458;-67
2021/10/18 01:31:33;;;;;;;17.13;13.15;;;;;;;9.67;98.80;101209.22;5031071;28;20037;-66
2021/10/18 01:33:59;;;;;;;17.75;12.10;;;;;;;9.53;98.95;101201.69;5031385;28;20038;-66
2021/10/18 01:36:25;;;;;;;14.55;11.77;;;;;;;9.51;99.61;101204.97;5031351;28;20026;-66
2021/10/18 01:38:51;;;;;;;15.88;12.05;;;;;;;9.47;99.60;101182.41;5030683;28;20099;-66
2021/10/18 01:41:17;;;;;;;16.17;12.35;;;;;;;9.70;98.78;101197.38;5031456;28;20476;-66
2021/10/18 01:43:42;;;;;;;15.43;12.27;;;;;;;9.85;98.13;101205.03;5031518;28;20029;-66
2021/10/18 01:46:08;;;;;;;16.77;12.63;;;;;;;9.86;97.49;101208.50;5031377;28;20028;-66
2021/10/18 01:48:34;;;;;;;15.98;12.35;;;;;;;9.62;97.11;101159.13;5013932;28;20029;-66
2021/10/18 01:50:59;;;;;;;16.10;11.93;;;;;;;9.74;97.99;101198.44;5031079;28;20025;-66
2021/10/18 01:53:25;;;;;;;18.33;13.48;;;;;;;9.79;98.31;101207.28;4996276;28;20109;-66
2021/10/18 01:55:50;;;;;;;16.90;12.70;;;;;;;9.82;98.20;101197.16;5031168;28;20033;-66
2021/10/18 01:58:16;;;;;;;18.20;13.55;;;;;;;9.78;98.32;101210.69;5031309;28;20032;-67
2021/10/18 02:00:43;;;;;;;19.08;13.73;;;;;;;9.71;98.45;101211.19;5031102;28;20084;-66
2021/10/18 02:03:10;;;;;;;18.83;13.57;;;;;;;9.57;98.99;101189.84;5031038;28;20078;-66
2021/10/18 02:05:36;;;;;;;18.35;13.95;;;;;;;9.71;99.52;101206.03;5030901;28;20446;-66
2021/10/18 02:08:01;;;;;;;17.05;13.48;;;;;;;9.84;99.15;101202.38;5013257;28;20070;-66
2021/10/18 02:10:27;;;;;;;17.05;13.85;;;;;;;9.97;98.82;101198.72;5031021;28;20058;-66
2021/10/18 02:12:52;;;;;;;20.70;13.85;;;;;;;9.57;98.15;101124.50;5030941;28;20507;-66
2021/10/18 02:15:18;;;;;;;19.13;14.48;;;;;;;10.04;99.00;101209.47;5031082;28;20048;-65
2021/10/18 02:17:44;;;;;;;22.15;13.80;;;;;;;10.08;99.18;101194.13;5030945;28;20064;-65
2021/10/18 02:20:12;;;;;;;18.38;14.13;;;;;;;10.08;99.19;101194.13;5013312;28;20068;-66
2021/10/18 02:22:38;;;;;;;21.77;14.45;;;;;;;10.08;99.46;101191.53;5030619;28;20029;-66
2021/10/18 02:25:08;;;;;;;16.17;13.32;;;;;;;10.14;99.35;101197.00;5031223;28;20037;-66
2021/10/18 02:27:35;;;;;;;18.30;14.52;;;;;;;10.15;99.36;101199.66;5030935;28;20060;-66
2021/10/18 02:30:03;;;;;;;20.42;15.40;;;;;;;10.03;100.00;101174.16;5030800;28;20091;-66
2021/10/18 02:32:29;;;;;;;23.98;14.98;;;;;;;10.18;99.78;101204.09;5030489;28;20430;-66
2021/10/18 02:34:54;;;;;;;18.35;14.57;;;;;;;10.19;100.00;101198.13;5030573;28;20032;-66
2021/10/18 02:37:20;;;;;;;24.75;16.30;;;;;;;10.13;100.00;101195.25;5030516;28;20029;-67
2021/10/18 02:39:45;;;;;;;19.00;14.30;;;;;;;10.10;99.77;101188.22;5030764;28;20109;-66
2021/10/18 02:42:11;;;;;;;19.02;14.15;;;;;;;10.09;99.44;101177.84;5030631;28;20021;-66
2021/10/18 02:44:36;;;;;;;19.48;15.57;;;;;;;10.19;100.00;101185.22;5030433;28;20037;-66
2021/10/18 02:47:02;;;;;;;23.23;15.50;;;;;;;10.21;100.00;101193.94;5030685;28;20120;-66
2021/10/18 02:49:28;;;;;;;20.85;14.73;;;;;;;10.24;100.00;101203.53;5030671;28;20119;-66
2021/10/18 02:51:53;;;;;;;19.02;14.73;;;;;;;10.15;100.00;101203.94;5033983;28;20028;-66
2021/10/18 02:54:19;;;;;;;20.50;14.82;;;;;;;10.05;100.00;101202.59;5034235;28;20032;-66
2021/10/18 02:56:44;;;;;;;20.38;14.77;;;;;;;9.89;100.00;101195.75;5034278;28;20145;-66
2021/10/18 02:59:10;;;;;;;18.90;14.60;;;;;;;9.84;100.00;101203.28;5034130;28;20029;-66
2021/10/18 03:01:35;;;;;;;19.25;15.38;;;;;;;9.66;100.00;101210.94;5034032;28;20083;-66
2021/10/18 03:04:01;;;;;;;21.10;14.90;;;;;;;9.58;100.00;101207.06;4983153;28;20099;-66
2021/10/18 03:06:26;;;;;;;22.73;15.32;;;;;;;9.62;100.00;101213.25;5033919;28;20061;-66
2021/10/18 03:08:53;;;;;;;24.80;16.33;;;;;;;9.63;100.00;101210.78;5034243;28;20057;-66
2021/10/18 03:11:19;;;;;;;21.02;17.23;;;;;;;9.72;100.00;101215.53;5033890;28;20026;-67
2021/10/18 03:13:45;;;;;;;19.23;15.30;;;;;;;9.34;100.00;101140.53;5033863;28;20060;-66
2021/10/18 03:16:10;;;;;;;18.42;13.57;;;;;;;9.81;100.00;101204.81;5033832;28;20056;-67
2021/10/18 03:18:37;;;;;;;19.25;13.80;;;;;;;9.90;100.00;101212.13;5016169;28;20059;-67
2021/10/18 03:21:02;;;;;;;18.13;12.98;;;;;;;9.41;100.00;101103.09;5033576;28;20044;-66
2021/10/18 03:23:28;;;;;;;16.60;12.80;;;;;;;10.06;100.00;101211.25;5033501;28;20029;-66
2021/10/18 03:25:53;;;;;;;16.77;13.52;;;;;;;9.69;100.00;101144.06;5033208;28;20039;-66
2021/10/18 03:28:19;;;;;;;22.13;13.48;;;;;;;10.02;100.00;101205.03;5033358;28;20034;-66
2021/10/18 03:30:44;;;;;;;16.77;13.10;;;;;;;10.05;100.00;101210.34;5033400;28;20029;-66
2021/10/18 03:33:10;;;;;;;19.05;13.73;;;;;;;10.06;100.00;101206.06;5015578;28;20471;-66
2021/10/18 03:35:35;;;;;;;17.13;13.55;;;;;;;10.06;100.00;101208.66;5033126;28;20036;-66
2021/10/18 03:38:01;;;;;;;20.65;13.88;;;;;;;10.07;100.00;101220.72;5033463;28;20041;-66
2021/10/18 03:40:26;;;;;;;20.30;13.73;;;;;;;9.67;100.00;101134.47;5033417;28;20126;-66
2021/10/18 03:42:52;;;;;;;17.70;13.77;;;;;;;10.08;100.00;101189.88;5033237;28;20041;-66
2021/10/18 03:45:17;;;;;;;15.60;13.32;;;;;;;10.24;100.00;101208.69;5033313;28;20025;-67
2021/10/18 03:47:43;;;;;;;20.90;14.70;;;;;;;10.27;100.00;101203.66;5033246;28;20045;-66
2021/10/18 03:50:09;;;;;;;18.73;13.82;;;;;;;10.19;100.00;101193.88;5032869;28;20136;-67
2021/10/18 03:52:34;;;;;;;19.75;13.70;;;;;;;10.32;100.00;101205.69;5033299;28;20037;-66
2021/10/18 03:55:00;;;;;;;17.67;13.88;;;;;;;10.39;100.00;101206.00;5033074;28;20029;-66
2021/10/18 03:57:26;;;;;;;15.45;12.85;;;;;;;10.35;100.00;101199.78;5032984;28;20052;-65
2021/10/18 03:59:51;;;;;;;19.05;13.43;;;;;;;10.31;100.00;101209.06;5032929;28;20104;-66
2021/10/18 04:02:17;;;;;;;17.35;13.48;;;;;;;10.08;100.00;101165.75;5032573;28;20055;-66
2021/10/18 04:04:43;;;;;;;21.33;13.43;;;;;;;10.18;100.00;101205.00;5032828;28;20079;-66
2021/10/18 04:07:08;;;;;;;19.63;13.88;;;;;;;10.08;100.00;101197.59;5032887;28;20051;-66
2021/10/18 04:09:34;;;;;;;18.98;14.07;;;;;;;10.16;100.00;101216.03;5032974;28;20041;-66
2021/10/18 04:12:00;;;;;;;21.00;14.77;;;;;;;10.08;100.00;101201.84;5032564;28;20061;-66
2021/10/18 04:14:26;;;;;;;21.23;14.30;;;;;;;10.16;100.00;101211.75;5032243;28;20133;-67
2021/10/18 04:16:51;;;;;;;18.80;13.95;;;;;;;9.78;100.00;101141.06;5037287;28;20091;-67
2021/10/18 04:19:17;;;;;;;19.48;14.48;;;;;;;10.25;100.00;101215.63;5052204;28;20056;-66
2021/10/18 04:21:42;;;;;;;19.58;14.00;;;;;;;10.26;100.00;101215.69;5049008;28;20083;-66
2021/10/18 04:24:08;;;;;;;20.67;13.77;;;;;;;9.97;100.00;101160.94;5035312;28;20033;-66
2021/10/18 04:26:33;;;;;;;24.45;14.55;;;;;;;10.30;100.00;101224.47;5042759;28;20049;-65
2021/10/18 04:28:59;;;;;;;19.45;13.57;;;;;;;10.30;100.00;101221.91;5023093;28;20049;-66
2021/10/18 04:31:28;;;;;;;20.02;14.25;;;;;;;10.32;100.00;101216.00;5041084;28;20078;-65
2021/10/18 04:33:56;;;;;;;18.52;13.93;;;;;;;10.32;100.00;101226.31;5040401;28;20466;-66
2021/10/18 04:36:22;;;;;;;20.92;13.40;;;;;;;10.19;99.93;101196.44;5043736;28;20395;-67
2021/10/18 04:38:47;;;;;;;20.70;13.30;;;;;;;10.28;100.00;101232.16;5045634;28;20025;-65
2021/10/18 04:41:12;;;;;;;16.42;13.63;;;;;;;9.68;100.00;101128.50;5052274;28;20033;-64
2021/10/18 04:43:38;;;;;;;21.17;14.73;;;;;;;10.26;100.00;101227.72;5039651;28;20028;-65
2021/10/18 04:46:03;;;;;;;19.98;14.25;;;;;;;9.85;99.82;101160.31;5041640;28;20388;-65
2021/10/18 04:48:29;;;;;;;18.40;13.65;;;;;;;10.26;99.95;101231.19;5040295;28;20028;-66
2021/10/18 04:50:54;;;;;;;19.65;14.70;;;;;;;10.17;100.00;101241.91;5032249;28;20095;-65
2021/10/18 04:53:20;;;;;;;19.05;14.80;;;;;;;10.12;100.00;101235.66;4996960;28;20041;-66
2021/10/18 04:55:45;;;;;;;18.85;13.80;;;;;;;10.13;100.00;101237.41;5014739;28;20021;-66
2021/10/18 04:58:11;;;;;;;18.00;13.68;;;;;;;10.16;100.00;101249.59;5032330;28;20478;-66
2021/10/18 05:00:40;;;;;;;20.65;14.82;;;;;;;10.19;99.82;101242.00;5032228;28;20505;-66
2021/10/18 05:03:05;;;;;;;21.23;14.18;;;;;;;10.02;99.91;101217.94;5003515;28;20131;-65
2021/10/18 05:05:34;;;;;;;16.95;14.75;;;;;;;10.19;100.00;101242.00;5047729;28;20629;-66
2021/10/18 05:08:08;;;;;;;18.58;14.15;;;;;;;10.18;99.96;101241.13;5044184;28;20087;-66
2021/10/18 05:10:35;;;;;;;22.67;14.55;;;;;;;10.23;100.00;101254.25;5045059;28;20025;-65
2021/10/18 05:13:01;;;;;;;18.17;14.60;;;;;;;10.11;100.00;101254.50;5041056;28;20568;-66
2021/10/18 05:15:27;;;;;;;20.15;14.73;;;;;;;10.11;100.00;101267.41;5041641;28;20483;-66
2021/10/18 05:17:53;;;;;;;21.38;14.50;;;;;;;10.13;100.00;101267.47;5040395;28;20028;-65
2021/10/18 05:20:19;;;;;;;20.35;13.93;;;;;;;10.06;100.00;101268.88;5041795;28;20023;-65
2021/10/18 05:22:44;;;;;;;21.50;14.73;;;;;;;10.10;100.00;101269.91;5041557;28;20021;-63
2021/10/18 05:25:10;;;;;;;18.48;14.30;;;;;;;9.94;100.00;101250.16;5024389;28;20106;-66
2021/10/18 05:27:36;;;;;;;21.00;15.32;;;;;;;10.13;100.00;101272.63;5040535;28;20048;-66
2021/10/18 05:30:07;;;;;;;22.15;14.90;;;;;;;9.75;100.00;101205.38;5041423;28;20025;-64
2021/10/18 05:32:33;;;;;;;19.92;13.88;;;;;;;9.97;100.00;101261.53;5041567;28;20024;-67
2021/10/18 05:34:59;;;;;;;20.90;14.30;;;;;;;9.94;100.00;101263.06;5040629;28;20021;-66
2021/10/18 05:37:24;;;;;;;24.25;14.98;;;;;;;9.96;100.00;101282.97;5043894;28;20044;-66
2021/10/18 05:39:49;;;;;;;18.15;15.23;;;;;;;9.83;100.00;101280.53;5019103;28;20112;-66
2021/10/18 05:42:15;;;;;;;22.30;15.52;;;;;;;9.80;100.00;101273.53;5041570;28;20025;-66
2021/10/18 05:44:41;;;;;;;18.80;15.27;;;;;;;9.93;100.00;101293.16;5041234;28;20033;-65
2021/10/18 05:47:06;;;;;;;24.55;16.45;;;;;;;9.57;100.00;101204.41;5040082;28;20195;-67
2021/10/18 05:49:32;;;;;;;27.25;16.75;;;;;;;10.06;100.00;101288.63;5044398;28;20028;-65
2021/10/18 05:51:57;;;;;;;21.90;15.63;;;;;;;9.40;100.00;101209.56;5051379;28;20033;-66
2021/10/18 05:54:23;;;;;;;21.58;15.60;;;;;;;9.82;100.00;101295.16;5051044;28;20040;-63
2021/10/18 05:56:50;;;;;;;22.27;14.90;;;;;;;9.93;100.00;101306.03;5050863;28;20117;-65
2021/10/18 05:59:16;;;;;;;19.58;14.82;;;;;;;10.00;100.00;101307.25;5016207;28;20041;-66
2021/10/18 06:01:42;;;;;;;23.42;18.33;;;;;;;10.13;100.00;101314.81;5051142;28;20033;-66
2021/10/18 06:04:07;;;;;;;26.75;19.75;;;;;;;10.22;100.00;101323.84;5051311;28;20490;-66
2021/10/18 06:06:35;;;;;;;23.00;18.30;;;;;;;10.35;100.00;101326.25;5051420;28;20025;-66
2021/10/18 06:09:00;;;;;;;21.23;18.10;;;;;;;9.87;100.00;101229.22;5051092;28;20097;-66
2021/10/18 06:11:26;;;;;;;21.00;17.23;;;;;;;10.47;100.00;101321.75;5051256;28;20515;-66
2021/10/18 06:13:51;;;;;;;23.55;17.25;;;;;;;10.55;100.00;101329.88;5050863;28;20036;-65
2021/10/18 06:16:17;;;;;;;26.95;16.38;;;;;;;10.42;100.00;101320.63;5050378;28;20033;-66
2021/10/18 06:18:42;;;;;;;22.88;16.08;;;;;;;9.57;100.00;101166.63;5050675;28;20033;-66
2021/10/18 06:21:08;;;;;;;24.90;17.50;;;;;;;10.40;100.00;101306.75;5050996;28;20029;-66
2021/10/18 06:23:33;;;;;;;20.95;16.88;;;;;;;10.51;100.00;101320.22;5050919;28;20024;-66
2021/10/18 06:25:59;;;;;;;24.23;15.73;;;;;;;10.50;100.00;101327.09;5053285;28;20499;-66
2021/10/18 06:28:24;;;;;;;25.60;16.42;;;;;;;10.57;100.00;101333.44;5054745;28;20029;-66
2021/10/18 06:30:50;;;;;;;22.25;16.35;;;;;;;10.67;100.00;101325.34;5051358;28;20036;-65
2021/10/18 06:44:35;;;;;;;29.05;20.10;;;;;;;10.31;100.00;101342.41;5056679;28;20769;-66
2021/10/18 06:47:01;;;;;;;25.92;19.60;;;;;;;10.35;100.00;101341.75;5048860;28;20037;-66
2021/10/18 06:49:26;;;;;;;30.13;20.45;;;;;;;10.38;100.00;101348.78;5039651;28;20108;-67
2021/10/18 06:51:55;;;;;;;25.67;20.48;;;;;;;10.54;100.00;101343.59;5048526;28;20453;-66
2021/10/18 06:54:21;;;;;;;34.45;22.83;;;;;;;10.76;100.00;101345.56;5031183;28;20654;-66
2021/10/18 06:56:47;;;;;;;34.00;22.10;;;;;;;10.71;100.00;101302.28;5028498;28;20501;-66
2021/10/18 06:59:15;;;;;;;31.88;23.05;;;;;;;11.09;100.00;101350.66;5038698;28;20033;-66
2021/10/18 07:01:41;;;;;;;49.20;26.67;;;;;;;11.10;100.00;101348.94;5041762;28;20056;-66
2021/10/18 07:04:07;;;;;;;49.35;26.60;;;;;;;10.35;100.00;101217.84;5028609;28;20029;-66
2021/10/18 07:06:33;;;;;;;46.17;25.75;;;;;;;11.14;100.00;101328.50;5028551;28;20049;-66
2021/10/18 07:08:59;;;;;;;42.58;26.00;;;;;;;11.28;100.00;101338.63;5028472;28;20048;-66
2021/10/18 07:11:26;;;;;;;41.30;25.33;;;;;;;11.19;100.00;101323.56;5028633;28;20078;-66
2021/10/18 07:13:51;;;;;;;38.38;25.25;;;;;;;11.04;100.00;101284.06;5028223;28;20475;-67
2021/10/18 07:16:17;;;;;;;34.03;25.13;;;;;;;11.51;100.00;101336.25;5039900;28;20025;-66
2021/10/18 07:18:43;;;;;;;39.15;26.05;;;;;;;11.73;100.00;101340.72;5048267;28;20025;-66
2021/10/18 07:21:09;;;;;;;45.42;26.15;;;;;;;11.89;100.00;101343.19;5048453;28;20032;-66
2021/10/18 07:23:34;;;;;;;38.58;25.77;;;;;;;11.53;100.00;101259.63;5048052;28;20026;-66
2021/10/18 07:26:02;;;;;;;41.38;23.70;;;;;;;12.03;100.00;101337.78;5048217;28;20025;-66
2021/10/18 07:28:28;;;;;;;36.45;20.98;;;;;;;12.13;98.31;101346.03;5047789;28;20036;-66
2021/10/18 07:30:53;;;;;;;32.00;21.75;;;;;;;11.76;97.29;101269.31;5047917;28;20078;-67
2021/10/18 07:33:20;;;;;;;39.47;23.20;;;;;;;12.34;96.06;101349.53;5047848;28;20033;-66
2021/10/18 07:35:45;;;;;;;37.55;20.83;;;;;;;12.37;94.56;101344.47;5048049;28;20021;-66
2021/10/18 07:38:31;;;;;;;40.22;25.35;;;;;;;12.45;96.37;101346.56;5065310;28;20048;-66
2021/10/18 07:40:56;;;;;;;32.58;20.30;;;;;;;12.56;93.19;101351.31;5065161;28;20033;-66
2021/10/18 07:43:22;;;;;;;34.53;18.95;;;;;;;12.08;92.53;101256.94;5065166;28;20053;-66
2021/10/18 07:45:47;;;;;;;34.42;19.33;;;;;;;12.64;91.01;101347.34;5065241;28;20082;-66
2021/10/18 07:48:13;;;;;;;35.45;19.52;;;;;;;12.71;90.96;101343.31;5065347;28;20049;-66
2021/10/18 07:50:38;;;;;;;40.25;19.70;;;;;;;12.66;91.81;101345.72;5065138;28;20041;-66
2021/10/18 07:53:03;;;;;;;41.40;22.80;;;;;;;12.82;93.36;101352.41;5064828;28;20048;-66
2021/10/18 07:55:32;;;;;;;43.03;21.00;;;;;;;12.90;94.64;101348.44;5020239;28;20068;-66
2021/10/18 07:57:58;;;;;;;35.42;20.20;;;;;;;12.94;93.52;101352.06;5051667;28;20086;-66
2021/10/18 08:00:23;;;;;;;28.80;20.67;;;;;;;13.04;93.38;101348.13;5051841;28;20057;-66
2021/10/18 08:02:49;;;;;;;32.85;21.38;;;;;;;13.09;95.21;101352.69;5051801;28;20029;-66
2021/10/18 08:05:17;;;;;;;33.03;21.10;;;;;;;13.08;93.06;101350.94;5051766;28;20044;-66
2021/10/18 08:07:46;;;;;;;31.08;20.48;;;;;;;13.19;91.83;101353.06;5051691;28;20044;-66
2021/10/18 08:10:13;;;;;;;31.70;22.20;;;;;;;13.21;93.68;101344.53;5037383;28;20088;-66
2021/10/18 08:12:39;;;;;;;29.00;20.27;;;;;;;13.21;92.87;101328.09;5033902;28;20029;-67
2021/10/18 08:15:04;;;;;;;30.13;21.25;;;;;;;13.04;92.65;101278.16;5033802;28;20037;-66
2021/10/18 08:17:30;;;;;;;34.60;22.33;;;;;;;13.42;90.53;101339.34;5033906;28;20025;-66
2021/10/18 08:19:56;;;;;;;30.38;20.48;;;;;;;13.52;89.86;101339.69;5033799;28;20033;-66
2021/10/18 08:22:21;;;;;;;28.80;19.00;;;;;;;13.43;88.66;101315.19;5033746;28;20095;-66
2021/10/18 08:24:46;;;;;;;27.10;17.75;;;;;;;13.55;90.24;101338.09;5033522;28;20415;-66
2021/10/18 08:27:12;;;;;;;27.55;18.20;;;;;;;13.48;88.70;101325.69;5034010;28;20021;-67
2021/10/18 08:29:38;;;;;;;27.67;18.38;;;;;;;13.59;89.25;101340.00;5033543;28;20522;-67
2021/10/18 08:32:03;;;;;;;24.40;17.77;;;;;;;13.70;87.81;101337.78;5033371;28;20025;-67
2021/10/18 08:34:29;;;;;;;33.38;17.77;;;;;;;13.71;87.96;101343.91;5033458;28;20022;-67
2021/10/18 08:36:54;;;;;;;26.45;18.67;;;;;;;13.78;88.08;101345.00;5033770;28;20140;-67
2021/10/18 08:42:09;;;;;;;22.10;15.85;;;;;;;13.38;84.88;101251.88;5033646;28;20563;-67
2021/10/18 08:44:35;;;;;;;19.60;15.18;;;;;;;13.75;84.17;101317.22;5033401;28;20042;-66
2021/10/18 08:47:02;;;;;;;20.23;14.63;;;;;;;13.90;83.81;101335.94;5033403;28;20490;-67
2021/10/18 08:49:28;;;;;;;20.17;15.27;;;;;;;14.04;84.72;101338.19;5033270;28;20028;-67
2021/10/18 08:51:54;;;;;;;22.92;15.48;;;;;;;14.25;84.72;101330.28;5032967;28;20033;-67
2021/10/18 08:54:19;;;;;;;18.60;14.13;;;;;;;14.25;81.18;101335.47;5033152;28;20107;-66
2021/10/18 08:56:45;;;;;;;18.83;14.35;;;;;;;14.30;80.84;101326.13;5032991;28;20392;-67
2021/10/18 08:59:10;;;;;;;19.75;14.23;;;;;;;14.27;80.53;101327.72;5032920;28;20022;-67
2021/10/18 09:01:41;;;;;;;24.05;14.75;;;;;;;14.27;80.41;101320.84;5033185;28;20025;-67
2021/10/18 09:04:24;;;;;;;21.80;15.43;;;;;;;14.44;80.99;101325.75;5030978;28;20029;-67
2021/10/18 09:06:50;;;;;;;23.92;16.08;;;;;;;14.45;80.77;101311.94;5026918;28;20075;-67
2021/10/18 09:09:19;;;;;;;19.30;14.88;;;;;;;14.54;81.53;101320.91;5033064;28;20029;-67
2021/10/18 09:11:47;;;;;;;18.42;14.65;;;;;;;14.51;79.89;101296.53;5032215;28;20511;-67
2021/10/18 09:14:13;;;;;;;18.70;14.02;;;;;;;14.74;80.01;101322.44;5032356;28;20026;-67
2021/10/18 09:16:43;;;;;;;26.70;16.00;;;;;;;14.76;80.02;101324.28;5032330;28;20026;-66
2021/10/18 09:19:10;;;;;;;20.60;15.45;;;;;;;14.72;81.07;101323.28;5032044;28;20025;-67
2021/10/18 09:21:43;;;;;;;23.27;15.93;;;;;;;14.80;79.80;101315.72;5032140;28;20544;-67
2021/10/18 09:24:11;;;;;;;23.30;14.98;;;;;;;14.86;80.46;101307.28;5031359;28;20406;-67
2021/10/18 09:26:38;;;;;;;22.77;14.63;;;;;;;14.93;80.13;101298.84;5031689;28;20064;-67
2021/10/18 09:29:14;;;;;;;18.83;14.45;;;;;;;14.81;78.75;101272.44;5031911;28;20156;-67
2021/10/18 09:31:42;;;;;;;22.25;13.57;;;;;;;15.00;77.15;101299.91;5031666;28;20033;-67
2021/10/18 09:34:07;;;;;;;19.33;13.32;;;;;;;14.99;76.57;101296.44;5030693;28;20526;-67
2021/10/18 09:36:34;;;;;;;22.10;13.57;;;;;;;15.04;77.76;101292.25;5029909;28;20148;-67
2021/10/18 09:39:32;;;;;;;18.40;12.68;;;;;;;15.14;74.88;101288.25;5031131;28;20036;-67
2021/10/18 09:42:05;;;;;;;20.88;13.52;;;;;;;15.26;77.51;101289.44;5010153;28;20104;-67
2021/10/18 10:53:29;;;;;;;12.77;9.98;;;;;;;16.79;69.14;101225.91;5011743;28;20108;-68
2021/10/18 10:56:16;;;;;;;12.88;10.50;;;;;;;16.87;68.50;101224.34;5011934;28;20029;-68
2021/10/18 10:58:50;;;;;;;13.00;10.77;;;;;;;16.15;70.83;101127.09;5012020;28;20042;-68
2021/10/18 11:01:43;;;;;;;13.82;10.10;;;;;;;16.68;70.68;101215.22;5011529;28;20093;-68
2021/10/18 11:04:30;;;;;;;12.70;9.70;;;;;;;16.55;69.67;101219.25;5025243;28;20546;-68
2021/10/18 11:07:00;;;;;;;16.23;9.80;;;;;;;16.50;69.08;101216.53;5028043;28;20033;-69
2021/10/18 11:09:49;;;;;;;13.68;9.48;;;;;;;16.47;67.73;101218.19;5028114;28;20021;-68
2021/10/18 11:12:17;;;;;;;14.52;9.60;;;;;;;16.60;69.69;101214.16;5028496;28;20057;-69
2021/10/18 11:15:01;;;;;;;17.75;10.60;;;;;;;16.74;68.17;101215.34;5031062;28;20105;-68
2021/10/18 11:17:33;;;;;;;17.70;10.02;;;;;;;16.26;68.19;101180.34;5030419;28;20025;-67
2021/10/18 11:20:01;;;;;;;13.65;9.07;;;;;;;16.69;69.62;101208.28;5028249;28;20025;-68
2021/10/18 11:22:33;;;;;;;14.10;9.35;;;;;;;16.62;68.98;101178.56;5027147;28;20026;-68
2021/10/18 11:25:01;;;;;;;13.73;10.50;;;;;;;17.08;69.93;101202.25;5025729;28;20040;-68
2021/10/18 11:27:33;;;;;;;12.93;9.83;;;;;;;17.32;66.72;101201.91;5026507;28;20057;-68
2021/10/18 11:30:03;;;;;;;14.57;8.93;;;;;;;17.48;65.55;101205.69;5026731;28;20279;-67
2021/10/18 11:32:31;;;;;;;17.23;9.75;;;;;;;17.73;67.32;101200.94;5029838;28;20022;-68
2021/10/18 11:35:16;;;;;;;14.70;8.95;;;;;;;17.91;63.94;101193.47;5031506;28;20029;-67
2021/10/18 11:37:59;;;;;;;16.95;8.88;;;;;;;17.66;61.66;101123.34;5033782;28;20033;-67
2021/10/18 11:40:44;;;;;;;12.75;8.15;;;;;;;18.11;62.79;101179.91;5033866;28;20096;-66
2021/10/18 11:43:19;;;;;;;14.10;8.75;;;;;;;17.95;64.02;101182.25;5031752;28;20041;-70
2021/10/18 11:45:47;;;;;;;17.60;8.73;;;;;;;17.63;60.43;101192.94;5034934;28;20025;-67
2021/10/18 11:48:17;;;;;;;10.73;8.38;;;;;;;17.58;63.41;101167.59;5034815;28;20033;-64
2021/10/18 11:50:44;;;;;;;13.00;8.10;;;;;;;17.78;62.25;101191.47;5027730;28;20384;-67
2021/10/18 11:53:20;;;;;;;12.38;8.38;;;;;;;17.90;61.74;101181.25;5029547;28;20033;-67
2021/10/18 11:55:57;;;;;;;9.00;7.80;;;;;;;17.82;63.86;101188.09;5034979;28;20060;-67
2021/10/18 11:58:30;;;;;;;10.15;8.43;;;;;;;17.94;63.50;101182.22;5032801;28;20029;-66
2021/10/18 12:01:03;;;;;;;12.05;8.93;;;;;;;18.05;64.03;101174.59;5014433;28;20022;-67
2021/10/18 12:03:30;;;;;;;14.43;9.73;;;;;;;18.16;62.74;101174.78;5015059;28;20123;-70
2021/10/18 12:05:58;;;;;;;11.70;8.32;;;;;;;18.07;60.57;101172.88;5046430;28;20498;-68
2021/10/18 12:08:35;;;;;;;11.52;7.75;;;;;;;17.91;61.00;101162.13;5020081;28;20037;-68
2021/10/18 12:11:05;;;;;;;11.52;8.15;;;;;;;17.57;62.07;101130.16;5033620;28;20119;-69
2021/10/18 12:13:39;;;;;;;13.10;8.95;;;;;;;18.07;63.12;101167.66;5033292;28;20479;-69
2021/10/18 12:16:25;;;;;;;9.38;7.55;;;;;;;17.83;61.16;101089.69;5032892;28;20033;-68
2021/10/18 12:22:06;;;;;;;12.27;8.75;;;;;;;18.21;64.40;101147.84;5134866;23;20058;-68
2021/10/18 12:24:34;;;;;;;12.63;7.60;;;;;;;18.31;62.88;101150.63;4994386;28;20033;-68
2021/10/18 12:27:03;;;;;;;17.48;8.60;;;;;;;18.50;63.35;101157.00;5009422;28;20042;-69
2021/10/18 12:29:38;;;;;;;10.85;6.38;;;;;;;17.78;60.49;101061.78;5010138;28;20048;-68
2021/10/18 12:32:09;;;;;;;9.38;7.28;;;;;;;18.09;59.74;101135.47;4988662;28;20034;-69
2021/10/18 12:34:36;;;;;;;10.90;7.72;;;;;;;17.82;59.77;101163.69;5009889;28;20021;-68
2021/10/18 12:37:12;;;;;;;11.38;6.95;;;;;;;17.55;61.17;101155.34;5011867;28;20030;-69